createdAt,value
2024-05-09T00:00:40.596Z,12.80
2024-05-09T00:03:10.244Z,12.70
2024-05-09T00:05:38.943Z,12.70
2024-05-09T00:08:08.612Z,12.70
2024-05-09T00:10:38.044Z,12.70
2024-05-09T00:13:07.489Z,12.70
2024-05-09T00:15:35.981Z,12.70
2024-05-09T00:18:04.173Z,12.70
2024-05-09T00:20:37.944Z,12.70
2024-05-09T00:23:12.506Z,12.60
2024-05-09T00:25:43.803Z,12.60
2024-05-09T00:28:12.271Z,12.60
2024-05-09T00:30:39.403Z,12.50
2024-05-09T00:33:08.279Z,12.50
2024-05-09T00:35:37.740Z,12.40
2024-05-09T00:38:07.520Z,12.40
2024-05-09T00:40:40.049Z,12.40
2024-05-09T00:43:11.241Z,12.40
2024-05-09T00:45:38.614Z,12.40
2024-05-09T00:48:08.277Z,12.40
2024-05-09T00:50:39.889Z,12.30
2024-05-09T00:53:11.455Z,12.30
2024-05-09T00:55:39.361Z,12.30
2024-05-09T00:58:08.929Z,12.30
2024-05-09T01:00:39.715Z,12.30
2024-05-09T01:03:10.905Z,12.30
2024-05-09T01:05:40.215Z,12.30
2024-05-09T01:08:08.020Z,12.30
2024-05-09T01:10:36.380Z,12.30
2024-05-09T01:13:04.924Z,12.30
2024-05-09T01:15:32.973Z,12.30
2024-05-09T01:18:04.197Z,12.30
2024-05-09T01:20:41.016Z,12.30
2024-05-09T01:23:15.250Z,12.20
2024-05-09T01:25:44.333Z,12.20
2024-05-09T01:28:11.486Z,12.20
2024-05-09T01:30:38.882Z,12.20
2024-05-09T01:33:08.679Z,12.20
2024-05-09T01:35:37.731Z,12.10
2024-05-09T01:38:07.412Z,12.20
2024-05-09T01:40:38.585Z,12.20
2024-05-09T01:43:09.334Z,12.10
2024-05-09T01:45:37.814Z,12.10
2024-05-09T01:48:05.577Z,12.10
2024-05-09T01:50:38.381Z,12.00
2024-05-09T01:53:13.177Z,12.00
2024-05-09T01:55:40.953Z,12.00
2024-05-09T01:58:08.842Z,12.00
2024-05-09T02:00:40.324Z,12.00
2024-05-09T02:03:16.062Z,12.00
2024-05-09T02:05:46.562Z,11.90
2024-05-09T02:08:15.754Z,11.90
2024-05-09T02:10:46.871Z,11.90
2024-05-09T02:13:14.907Z,11.90
2024-05-09T02:15:44.990Z,11.90
2024-05-09T02:18:12.814Z,11.90
2024-05-09T02:20:41.326Z,11.90
2024-05-09T02:23:09.266Z,11.90
2024-05-09T02:25:36.473Z,11.90
2024-05-09T02:28:03.548Z,11.90
2024-05-09T02:30:39.411Z,11.80
2024-05-09T02:33:10.799Z,11.90
2024-05-09T02:35:39.904Z,11.90
2024-05-09T02:38:06.979Z,11.90
2024-05-09T02:40:37.892Z,11.90
2024-05-09T02:43:08.058Z,11.80
2024-05-09T02:45:35.554Z,11.80
2024-05-09T02:48:02.932Z,11.80
2024-05-09T02:50:37.148Z,11.80
2024-05-09T02:53:07.620Z,11.80
2024-05-09T02:55:35.107Z,11.80
2024-05-09T02:58:02.198Z,11.80
2024-05-09T03:00:37.102Z,11.80
2024-05-09T03:03:09.473Z,11.80
2024-05-09T03:05:38.183Z,11.80
2024-05-09T03:08:05.692Z,11.80
2024-05-09T03:10:38.108Z,11.70
2024-05-09T03:13:15.427Z,11.80
2024-05-09T03:15:44.002Z,11.70
2024-05-09T03:18:11.839Z,11.70
2024-05-09T03:20:39.744Z,11.70
2024-05-09T03:23:09.482Z,11.70
2024-05-09T03:25:37.678Z,11.70
2024-05-09T03:28:04.996Z,11.70
2024-05-09T03:30:39.890Z,11.70
2024-05-09T03:33:18.707Z,11.70
2024-05-09T03:35:47.623Z,11.70
2024-05-09T03:38:14.889Z,11.80
2024-05-09T03:40:49.899Z,11.70
2024-05-09T03:43:18.149Z,11.80
2024-05-09T03:45:47.826Z,11.80
2024-05-09T03:48:15.130Z,11.80
2024-05-09T03:50:42.607Z,11.80
2024-05-09T03:53:14.439Z,11.80
2024-05-09T03:55:41.988Z,11.80
2024-05-09T03:58:09.584Z,11.80
2024-05-09T04:00:40.301Z,11.70
2024-05-09T04:03:10.918Z,11.80
2024-05-09T04:05:41.762Z,11.80
2024-05-09T04:08:11.008Z,11.80
2024-05-09T04:10:41.330Z,11.80
2024-05-09T04:13:09.306Z,11.80
2024-05-09T04:15:36.326Z,11.80
2024-05-09T04:18:03.642Z,11.90
2024-05-09T04:20:38.126Z,11.90
2024-05-09T04:23:11.054Z,11.90
2024-05-09T04:25:38.571Z,11.90
2024-05-09T04:28:05.919Z,12.00
2024-05-09T04:30:38.297Z,12.00
2024-05-09T04:33:10.896Z,12.00
2024-05-09T04:35:42.600Z,12.10
2024-05-09T04:38:10.265Z,12.20
2024-05-09T04:40:37.916Z,12.20
2024-05-09T04:43:06.902Z,12.20
2024-05-09T04:45:35.152Z,12.20
2024-05-09T04:48:02.847Z,12.30
2024-05-09T04:50:36.561Z,12.40
2024-05-09T04:53:11.882Z,12.40
2024-05-09T04:55:40.476Z,12.50
2024-05-09T04:58:11.797Z,12.60
2024-05-09T05:00:40.571Z,12.60
2024-05-09T05:03:13.174Z,12.60
2024-05-09T05:05:42.643Z,12.60
2024-05-09T05:08:17.862Z,12.60
2024-05-09T05:10:46.432Z,12.60
2024-05-09T05:13:20.273Z,12.60
2024-05-09T05:15:53.609Z,12.70
2024-05-09T05:18:21.698Z,12.80
2024-05-09T05:20:49.226Z,12.80
2024-05-09T05:23:19.155Z,12.80
2024-05-09T05:25:49.310Z,12.90
2024-05-09T05:28:17.124Z,13.00
2024-05-09T05:30:45.220Z,13.00
2024-05-09T05:33:14.269Z,13.00
2024-05-09T05:35:44.285Z,13.10
2024-05-09T05:38:11.582Z,13.10
2024-05-09T05:40:39.920Z,13.10
2024-05-09T05:43:09.591Z,13.20
2024-05-09T05:45:37.186Z,13.20
2024-05-09T05:48:06.372Z,13.30
2024-05-09T05:50:36.810Z,13.40
2024-05-09T05:53:10.086Z,13.40
2024-05-09T05:55:41.165Z,13.50
2024-05-09T05:58:12.323Z,13.60
2024-05-09T06:00:41.437Z,13.80
2024-05-09T06:03:10.145Z,13.90
2024-05-09T06:05:40.349Z,14.10
2024-05-09T06:08:08.367Z,14.20
2024-05-09T06:10:39.215Z,14.30
2024-05-09T06:13:11.259Z,14.40
2024-05-09T06:15:38.813Z,14.40
2024-05-09T06:18:10.147Z,14.50
2024-05-09T06:20:39.766Z,14.60
2024-05-09T06:23:08.043Z,14.70
2024-05-09T06:25:36.090Z,14.80
2024-05-09T06:28:03.292Z,14.90
2024-05-09T06:30:37.892Z,14.90
2024-05-09T06:33:13.083Z,15.00
2024-05-09T06:35:42.398Z,15.10
2024-05-09T06:38:09.920Z,15.20
2024-05-09T06:40:41.277Z,15.30
2024-05-09T06:43:18.397Z,15.30
2024-05-09T06:45:52.631Z,15.30
2024-05-09T06:48:21.046Z,15.40
2024-05-09T06:50:48.934Z,15.40
2024-05-09T06:53:17.023Z,15.40
2024-05-09T06:55:44.097Z,15.50
2024-05-09T06:58:13.289Z,15.60
2024-05-09T07:00:41.786Z,15.60
2024-05-09T07:03:11.020Z,15.80
2024-05-09T07:05:39.224Z,15.80
2024-05-09T07:08:06.811Z,16.00
2024-05-09T07:10:40.247Z,16.10
2024-05-09T07:13:10.689Z,16.20
2024-05-09T07:15:38.121Z,16.20
2024-05-09T07:18:20.054Z,16.40
2024-05-09T07:20:50.955Z,16.50
2024-05-09T07:23:18.565Z,16.70
2024-05-09T07:31:02.861Z,17.40
2024-05-09T07:33:30.613Z,17.60
2024-05-09T07:35:58.625Z,17.70
2024-05-09T07:54:13.791Z,17.70
2024-05-09T07:56:40.936Z,17.80
2024-05-09T07:59:08.073Z,17.60
2024-05-09T08:01:37.706Z,17.60
2024-05-09T08:04:04.881Z,17.60
2024-05-09T08:06:32.430Z,17.50
2024-05-09T08:09:05.457Z,17.50
2024-05-09T08:11:35.311Z,17.60
2024-05-09T08:14:02.225Z,17.70
2024-05-09T08:16:29.279Z,17.70
2024-05-09T08:18:56.478Z,17.80
2024-05-09T08:21:23.564Z,17.70
2024-05-09T08:23:50.514Z,17.80
2024-05-09T08:26:17.558Z,17.90
2024-05-09T08:28:44.477Z,18.00
2024-05-09T08:31:14.497Z,18.20
2024-05-09T08:33:48.517Z,18.20
2024-05-09T08:36:15.615Z,18.30
2024-05-09T08:38:42.559Z,18.30
2024-05-09T08:41:16.408Z,18.40
2024-05-09T08:43:44.667Z,18.40
2024-05-09T08:46:13.376Z,18.40
2024-05-09T08:48:43.340Z,18.40
2024-05-09T08:51:10.467Z,18.60
2024-05-09T08:53:37.672Z,18.70
2024-05-09T08:56:09.358Z,18.90
2024-05-09T08:58:37.454Z,19.10
2024-05-09T09:01:05.202Z,19.10
2024-05-09T09:03:36.571Z,19.20
2024-05-09T09:06:10.667Z,19.40
2024-05-09T09:08:39.572Z,19.50
2024-05-09T09:11:06.711Z,19.70
2024-05-09T09:13:35.850Z,20.00
2024-05-09T09:16:03.667Z,20.30
2024-05-09T09:18:31.961Z,20.50
2024-05-09T09:20:59.027Z,20.80
2024-05-09T09:24:09.896Z,21.10
2024-05-09T09:26:36.960Z,21.40
2024-05-09T09:29:06.059Z,21.40
2024-05-09T09:31:35.307Z,21.40
2024-05-09T09:34:09.534Z,21.50
2024-05-09T09:36:40.809Z,21.60
2024-05-09T09:39:09.410Z,21.70
2024-05-09T09:41:38.106Z,21.80
2024-05-09T09:44:10.385Z,21.90
2024-05-09T09:46:38.374Z,21.90
2024-05-09T09:49:09.377Z,22.00
2024-05-09T09:51:37.024Z,21.90
2024-05-09T09:54:06.003Z,21.90
2024-05-09T09:56:33.868Z,21.90
2024-05-09T09:59:04.498Z,22.00
2024-05-09T10:01:31.908Z,22.00
2024-05-09T10:03:59.267Z,22.20
2024-05-09T10:06:28.395Z,22.40
2024-05-09T10:08:56.338Z,22.50
2024-05-09T10:11:25.791Z,22.80
2024-05-09T10:13:54.027Z,22.90
2024-05-09T10:16:24.423Z,23.10
2024-05-09T10:18:51.921Z,23.00
2024-05-09T10:21:20.388Z,22.90
2024-05-09T10:24:19.113Z,22.80
2024-05-09T10:26:55.431Z,22.80
2024-05-09T10:29:24.199Z,22.80
2024-05-09T10:31:51.396Z,22.90
2024-05-09T10:34:27.860Z,23.10
2024-05-09T10:36:55.494Z,23.30
2024-05-09T10:39:22.827Z,23.50
2024-05-09T10:41:52.788Z,23.60
2024-05-09T10:44:21.743Z,23.60
2024-05-09T10:46:50.425Z,23.70
2024-05-09T10:49:17.835Z,23.90
2024-05-09T10:51:45.543Z,24.10
2024-05-09T10:54:12.664Z,24.40
2024-05-09T10:56:39.892Z,24.60
2024-05-09T10:59:06.906Z,24.80
2024-05-09T11:01:34.160Z,24.90
2024-05-09T11:04:04.082Z,24.90
2024-05-09T11:06:31.322Z,25.00
2024-05-09T11:08:58.497Z,25.00
2024-05-09T11:11:26.377Z,25.00
2024-05-09T11:13:53.327Z,25.00
2024-05-09T11:16:21.422Z,25.00
2024-05-09T11:18:56.592Z,25.00
2024-05-09T11:21:24.583Z,25.20
2024-05-09T11:23:52.377Z,25.40
2024-05-09T11:26:21.637Z,25.60
2024-05-09T11:28:50.644Z,25.80
2024-05-09T11:31:18.203Z,25.80
2024-05-09T11:33:45.835Z,25.80
2024-05-09T11:36:13.806Z,25.80
2024-05-09T11:38:41.006Z,25.60
2024-05-09T11:41:08.293Z,25.60
2024-05-09T11:43:35.339Z,25.30
2024-05-09T11:46:03.800Z,25.20
2024-05-09T11:48:31.713Z,25.10
2024-05-09T11:50:58.930Z,25.00
2024-05-09T11:53:26.091Z,25.00
2024-05-09T11:55:53.477Z,25.20
2024-05-09T11:58:21.572Z,25.30
2024-05-09T12:00:48.816Z,25.40
2024-05-09T12:03:16.244Z,25.50
2024-05-09T12:05:43.517Z,25.40
2024-05-09T12:08:10.758Z,25.40
2024-05-09T12:10:37.860Z,25.50
2024-05-09T12:13:06.815Z,25.20
2024-05-09T12:15:37.832Z,24.90
2024-05-09T12:18:06.326Z,24.70
2024-05-09T12:20:37.642Z,24.70
2024-05-09T12:23:08.831Z,24.70
2024-05-09T12:25:37.967Z,24.70
2024-05-09T12:28:05.465Z,24.90
2024-05-09T12:30:37.589Z,24.90
2024-05-09T12:33:12.349Z,24.90
2024-05-09T12:35:41.765Z,24.80
2024-05-09T12:38:10.092Z,24.70
2024-05-09T12:40:38.816Z,24.50
2024-05-09T12:43:08.153Z,24.40
2024-05-09T12:45:36.353Z,24.30
2024-05-09T12:48:04.766Z,24.10
2024-05-09T12:50:34.097Z,24.00
2024-05-09T12:53:03.272Z,23.90
2024-05-09T12:55:37.132Z,23.90
2024-05-09T12:58:11.980Z,23.90
2024-05-09T13:00:39.358Z,23.90
2024-05-09T13:03:07.107Z,24.10
2024-05-09T13:05:34.307Z,24.30
2024-05-09T13:08:02.088Z,24.60
2024-05-09T13:10:32.639Z,24.90
2024-05-09T13:13:01.917Z,25.10
2024-05-09T13:15:31.132Z,25.40
2024-05-09T13:18:02.068Z,25.60
2024-05-09T13:20:33.875Z,25.80
2024-05-09T13:23:04.981Z,25.80
2024-05-09T13:25:34.485Z,25.80
2024-05-09T13:28:02.128Z,25.70
2024-05-09T13:30:38.260Z,25.50
2024-05-09T13:33:12.282Z,25.30
2024-05-09T13:35:45.564Z,24.90
2024-05-09T13:38:16.748Z,24.30
2024-05-09T13:40:43.969Z,24.10
2024-05-09T13:43:11.231Z,24.20
2024-05-09T13:45:38.305Z,24.30
2024-05-09T13:48:07.098Z,24.30
2024-05-09T13:50:36.380Z,24.20
2024-05-09T13:53:08.427Z,24.10
2024-05-09T13:55:39.895Z,24.00
2024-05-09T13:58:08.477Z,23.80
2024-05-09T14:00:44.403Z,23.70
2024-05-09T14:03:16.941Z,23.60
2024-05-09T14:05:46.051Z,23.30
2024-05-09T14:08:15.401Z,23.30
2024-05-09T14:10:44.708Z,23.20
2024-05-09T14:13:12.919Z,23.20
2024-05-09T14:15:40.366Z,23.20
2024-05-09T14:18:11.532Z,23.00
2024-05-09T14:20:40.994Z,22.90
2024-05-09T14:23:08.040Z,22.90
2024-05-09T14:25:38.941Z,23.00
2024-05-09T14:28:12.131Z,23.10
2024-05-09T14:30:39.974Z,23.20
2024-05-09T14:33:08.643Z,23.40
2024-05-09T14:35:37.840Z,23.50
2024-05-09T14:38:06.239Z,23.50
2024-05-09T14:43:03.507Z,23.40
2024-05-09T14:45:30.673Z,23.30
2024-05-09T14:47:57.816Z,23.50
2024-05-09T14:50:34.629Z,23.70
2024-05-09T14:53:06.266Z,23.90
2024-05-09T14:55:35.928Z,24.10
2024-05-09T14:58:07.008Z,24.30
2024-05-09T15:00:38.513Z,24.50
2024-05-09T15:03:07.291Z,24.60
2024-05-09T15:05:34.466Z,24.80
2024-05-09T15:08:01.442Z,24.90
2024-05-09T15:10:34.535Z,24.90
2024-05-09T15:13:04.126Z,24.90
2024-05-09T15:15:31.780Z,24.80
2024-05-09T15:17:59.261Z,24.80
2024-05-09T15:20:34.336Z,24.80
2024-05-09T15:23:04.749Z,24.70
2024-05-09T15:25:33.028Z,24.70
2024-05-09T15:28:00.144Z,24.90
2024-05-09T15:30:31.508Z,25.10
2024-05-09T15:33:01.413Z,25.40
2024-05-09T15:35:29.079Z,26.30
2024-05-09T15:37:56.507Z,27.30
2024-05-09T15:40:34.842Z,28.20
2024-05-09T15:43:07.264Z,29.00
2024-05-09T15:45:34.971Z,29.70
2024-05-09T15:48:03.542Z,30.00
2024-05-09T15:50:37.601Z,30.50
2024-05-09T15:53:09.146Z,30.70
2024-05-09T15:55:37.131Z,31.10
2024-05-09T15:58:05.483Z,31.40
2024-05-09T16:00:37.946Z,31.70
2024-05-09T16:03:09.522Z,32.00
2024-05-09T16:05:37.600Z,32.00
2024-05-09T16:08:05.903Z,31.90
2024-05-09T16:10:34.670Z,31.20
2024-05-09T16:13:03.207Z,30.40
2024-05-09T16:15:30.960Z,29.50
2024-05-09T16:18:01.424Z,28.70
2024-05-09T16:20:37.893Z,28.00
2024-05-09T16:23:08.699Z,27.30
2024-05-09T16:25:36.280Z,26.70
2024-05-09T16:28:08.508Z,26.20
2024-05-09T16:30:38.580Z,25.80
2024-05-09T16:33:06.461Z,25.30
2024-05-09T16:35:34.873Z,25.00
2024-05-09T16:38:03.203Z,24.60
2024-05-09T16:40:37.576Z,24.30
2024-05-09T16:43:08.700Z,24.10
2024-05-09T16:45:36.743Z,23.90
2024-05-09T16:48:04.680Z,23.60
2024-05-09T16:50:34.378Z,23.40
2024-05-09T16:53:03.858Z,23.20
2024-05-09T16:55:31.213Z,23.00
2024-05-09T16:57:58.670Z,22.90
2024-05-09T17:00:35.787Z,22.70
2024-05-09T17:03:10.176Z,22.60
2024-05-09T17:05:40.846Z,22.40
2024-05-09T17:08:08.538Z,22.30
2024-05-09T17:10:38.627Z,22.10
2024-05-09T17:13:07.548Z,22.10
2024-05-09T17:15:38.595Z,21.90
2024-05-09T17:18:07.630Z,21.80
2024-05-09T17:20:37.012Z,21.70
2024-05-09T17:23:14.665Z,21.50
2024-05-09T17:25:42.268Z,21.40
2024-05-09T17:28:12.323Z,21.20
2024-05-09T17:30:41.105Z,21.20
2024-05-09T17:33:10.912Z,21.00
2024-05-09T17:35:41.622Z,20.90
2024-05-09T17:38:08.810Z,20.80
2024-05-09T17:40:37.790Z,20.70
2024-05-09T17:43:08.870Z,20.60
2024-05-09T17:45:39.064Z,20.50
2024-05-09T17:48:07.400Z,20.40
2024-05-09T17:50:36.751Z,20.30
2024-05-09T17:53:06.064Z,20.10
2024-05-09T17:55:33.739Z,20.10
2024-05-09T17:58:01.252Z,19.90
2024-05-09T18:00:36.791Z,19.80
2024-05-09T18:03:10.693Z,19.70
2024-05-09T18:05:42.021Z,19.60
2024-05-09T18:08:09.854Z,19.50
2024-05-09T18:10:39.733Z,19.30
2024-05-09T18:13:13.791Z,19.20
2024-05-09T18:15:41.492Z,19.10
2024-05-09T18:18:09.402Z,18.90
2024-05-09T18:20:43.532Z,18.80
2024-05-09T18:23:15.319Z,18.60
2024-05-09T18:25:47.673Z,18.50
2024-05-09T18:28:15.686Z,18.40
2024-05-09T18:30:43.250Z,18.30
2024-05-09T18:33:11.565Z,18.10
2024-05-09T18:35:39.294Z,18.00
2024-05-09T18:38:06.407Z,17.80
2024-05-09T18:40:36.580Z,17.60
2024-05-09T18:43:07.515Z,17.60
2024-05-09T18:45:39.476Z,17.50
2024-05-09T18:48:10.366Z,17.40
2024-05-09T18:50:40.161Z,17.20
2024-05-09T18:53:13.282Z,17.10
2024-05-09T18:55:42.597Z,17.00
2024-05-09T18:58:09.973Z,17.00
2024-05-09T19:00:39.755Z,16.80
2024-05-09T19:03:11.807Z,16.70
2024-05-09T19:05:41.666Z,16.60
2024-05-09T19:08:11.716Z,16.60
2024-05-09T19:10:39.568Z,16.50
2024-05-09T19:13:12.854Z,16.40
2024-05-09T19:15:42.045Z,16.30
2024-05-09T19:18:10.299Z,16.20
2024-05-09T19:20:37.930Z,16.10
2024-05-09T19:23:06.538Z,15.90
2024-05-09T19:25:34.798Z,15.80
2024-05-09T19:28:02.059Z,15.80
2024-05-09T19:30:37.321Z,15.70
2024-05-09T19:33:09.456Z,15.60
2024-05-09T19:35:37.165Z,15.50
2024-05-09T19:38:05.223Z,15.40
2024-05-09T19:40:34.092Z,15.30
2024-05-09T19:43:03.111Z,15.20
2024-05-09T19:45:32.292Z,15.20
2024-05-09T19:50:36.549Z,15.00
2024-05-09T19:53:08.958Z,14.90
2024-05-09T19:55:36.222Z,14.70
2024-05-09T19:58:07.331Z,14.60
2024-05-09T20:00:38.494Z,14.50
2024-05-09T20:03:08.168Z,14.30
2024-05-09T20:05:38.731Z,14.20
2024-05-09T20:08:06.759Z,14.10
2024-05-09T20:10:35.648Z,14.00
2024-05-09T20:13:05.135Z,14.00
2024-05-09T20:15:35.320Z,13.90
2024-05-09T20:18:03.106Z,13.80
2024-05-09T20:20:39.355Z,13.70
2024-05-09T20:23:10.579Z,13.70
2024-05-09T20:25:37.846Z,13.60
2024-05-09T20:28:06.597Z,13.60
2024-05-09T20:30:35.151Z,13.50
2024-05-09T20:33:05.212Z,13.50
2024-05-09T20:35:33.683Z,13.50
2024-05-09T20:38:02.210Z,13.40
2024-05-09T20:40:34.231Z,13.40
2024-05-09T20:43:08.807Z,13.30
2024-05-09T20:45:39.515Z,13.30
2024-05-09T20:50:40.863Z,13.20
2024-05-09T20:53:13.976Z,13.10
2024-05-09T20:55:42.328Z,13.10
2024-05-09T20:58:12.779Z,13.10
2024-05-09T21:00:43.515Z,13.10
2024-05-09T21:03:14.519Z,13.10
2024-05-09T21:05:46.414Z,13.10
2024-05-09T21:08:16.522Z,13.10
2024-05-09T21:10:43.766Z,13.00
2024-05-09T21:13:11.271Z,12.90
2024-05-09T21:15:40.731Z,12.80
2024-05-09T21:18:08.488Z,12.70
2024-05-09T21:20:37.698Z,12.60
2024-05-09T21:23:08.039Z,12.60
2024-05-09T21:25:35.079Z,12.60
2024-05-09T21:28:02.372Z,12.60
2024-05-09T21:30:38.571Z,12.50
2024-05-09T21:33:11.084Z,12.50
2024-05-09T21:35:39.857Z,12.40
2024-05-09T21:38:07.542Z,12.40
2024-05-09T21:40:36.422Z,12.30
2024-05-09T21:43:05.625Z,12.30
2024-05-09T21:45:37.501Z,12.20
2024-05-09T21:48:05.842Z,12.20
2024-05-09T21:50:42.742Z,12.10
2024-05-09T21:53:13.659Z,12.10
2024-05-09T21:55:44.528Z,11.90
2024-05-09T21:58:13.139Z,11.90
2024-05-09T22:00:42.779Z,11.90
2024-05-09T22:03:13.029Z,11.90
2024-05-09T22:05:44.273Z,11.80
2024-05-09T22:08:14.521Z,11.80
2024-05-09T22:10:41.836Z,11.80
2024-05-09T22:13:09.370Z,11.70
2024-05-09T22:15:38.745Z,11.70
2024-05-09T22:18:08.338Z,11.60
2024-05-09T22:20:45.242Z,11.50
2024-05-09T22:23:14.191Z,11.50
2024-05-09T22:25:41.430Z,11.50
2024-05-09T22:28:08.636Z,11.40
2024-05-09T22:30:39.048Z,11.40
2024-05-09T22:33:09.148Z,11.40
2024-05-09T22:35:40.374Z,11.30
2024-05-09T22:38:07.749Z,11.30
2024-05-09T22:40:45.370Z,11.30
2024-05-09T22:43:23.900Z,11.20
2024-05-09T22:45:53.870Z,11.20
2024-05-09T22:48:21.367Z,11.10
2024-05-09T22:50:48.767Z,11.10
2024-05-09T22:53:15.766Z,11.10
2024-05-09T22:55:42.844Z,11.00
2024-05-09T22:58:12.115Z,10.90
2024-05-09T23:00:39.215Z,10.90
2024-05-09T23:05:33.334Z,10.80
2024-05-09T23:08:03.496Z,10.80
2024-05-09T23:10:36.099Z,10.80
2024-05-09T23:13:06.606Z,10.80
2024-05-09T23:15:34.259Z,10.80
2024-05-09T23:18:01.456Z,10.80
2024-05-09T23:20:36.385Z,10.80
2024-05-09T23:23:10.994Z,10.70
2024-05-09T23:25:41.114Z,10.70
2024-05-09T23:28:08.372Z,10.70
2024-05-09T23:30:39.022Z,10.70
2024-05-09T23:33:10.017Z,10.70
2024-05-09T23:35:37.280Z,10.70
2024-05-09T23:38:04.695Z,10.60
2024-05-09T23:43:01.679Z,10.60
2024-05-09T23:45:28.951Z,10.60
2024-05-09T23:47:56.153Z,10.50
2024-05-09T23:50:33.571Z,10.50
2024-05-09T23:53:08.074Z,10.50
2024-05-09T23:55:36.636Z,10.50
2024-05-09T23:58:04.034Z,10.50
